createdAt,value
2023-01-19T00:03:53.663Z,9.93
2023-01-19T00:08:55.153Z,24.33
2023-01-19T00:13:57.050Z,16.92
2023-01-19T00:18:58.560Z,17.83
2023-01-19T00:24:00.104Z,18.92
2023-01-19T00:29:01.618Z,16.67
2023-01-19T00:34:03.474Z,15.50
2023-01-19T00:39:04.978Z,14.88
2023-01-19T00:44:06.458Z,14.00
2023-01-19T00:49:07.907Z,19.00
2023-01-19T00:54:10.237Z,10.32
2023-01-19T00:59:11.969Z,14.70
2023-01-19T01:04:14.186Z,15.30
2023-01-19T01:09:15.650Z,15.23
2023-01-19T01:14:17.615Z,12.18
2023-01-19T01:19:19.377Z,10.38
2023-01-19T01:24:20.945Z,9.15
2023-01-19T01:29:22.473Z,9.45
2023-01-19T01:34:23.936Z,13.93
2023-01-19T01:39:25.702Z,10.00
2023-01-19T01:44:52.625Z,12.38
2023-01-19T01:50:01.003Z,18.83
2023-01-19T01:55:02.652Z,11.73
2023-01-19T02:00:04.676Z,14.50
2023-01-19T02:05:08.347Z,14.93
2023-01-19T02:10:28.445Z,12.15
2023-01-19T02:15:29.925Z,10.43
2023-01-19T02:20:31.501Z,13.65
2023-01-19T02:25:32.970Z,13.23
2023-01-19T02:30:34.889Z,14.70
2023-01-19T02:35:37.608Z,14.27
2023-01-19T02:40:39.133Z,15.00
2023-01-19T02:45:40.638Z,12.48
2023-01-19T02:50:46.894Z,13.10
2023-01-19T02:55:54.034Z,13.90
2023-01-19T03:01:12.523Z,12.90
2023-01-19T03:06:22.499Z,15.15
2023-01-19T03:11:23.958Z,9.70
2023-01-19T03:16:34.304Z,12.43
2023-01-19T03:21:36.209Z,10.07
2023-01-19T03:26:40.343Z,11.80
2023-01-19T03:31:43.330Z,16.55
2023-01-19T03:36:46.592Z,13.93
2023-01-19T03:41:48.614Z,8.18
2023-01-19T03:46:50.353Z,13.88
2023-01-19T03:51:51.932Z,10.45
2023-01-19T03:56:53.940Z,12.43
2023-01-19T04:01:55.452Z,14.30
2023-01-19T04:06:57.574Z,19.95
2023-01-19T04:12:01.446Z,13.82
2023-01-19T04:17:02.913Z,10.90
2023-01-19T04:22:04.817Z,11.82
2023-01-19T04:27:06.299Z,11.18
2023-01-19T04:32:07.857Z,7.93
2023-01-19T04:37:09.309Z,12.93
2023-01-19T04:42:10.764Z,13.38
2023-01-19T04:47:12.259Z,11.45
2023-01-19T04:52:13.730Z,15.65
2023-01-19T04:57:15.201Z,11.43
2023-01-19T05:02:17.602Z,6.00
2023-01-19T05:07:19.083Z,12.93
2023-01-19T05:12:20.817Z,9.60
2023-01-19T05:17:22.356Z,12.82
2023-01-19T05:22:24.491Z,6.93
2023-01-19T05:27:25.959Z,13.70
2023-01-19T05:32:27.459Z,10.93
2023-01-19T05:37:28.912Z,5.40
2023-01-19T05:42:32.111Z,9.98
2023-01-19T05:47:35.333Z,6.47
2023-01-19T05:52:36.844Z,3.90
2023-01-19T05:57:38.328Z,8.15
2023-01-19T06:02:39.791Z,10.63
2023-01-19T06:07:41.249Z,5.43
2023-01-19T06:12:42.813Z,8.77
2023-01-19T06:17:44.301Z,6.78
2023-01-19T06:22:45.757Z,4.72
2023-01-19T06:27:47.254Z,11.00
2023-01-19T06:32:48.745Z,5.80
2023-01-19T06:37:50.776Z,5.97
2023-01-19T06:42:52.939Z,7.38
2023-01-19T06:47:54.397Z,8.27
2023-01-19T06:52:55.861Z,11.70
2023-01-19T06:58:00.501Z,10.32
2023-01-19T07:03:02.514Z,5.60
2023-01-19T07:08:04.445Z,6.25
2023-01-19T07:13:06.095Z,10.88
2023-01-19T07:18:08.141Z,6.28
2023-01-19T07:23:10.452Z,11.32
2023-01-19T07:28:15.422Z,6.13
2023-01-19T07:33:16.877Z,4.38
2023-01-19T07:38:18.771Z,6.10
2023-01-19T07:43:20.552Z,4.78
2023-01-19T07:48:22.004Z,2.83
2023-01-19T07:53:23.464Z,11.05
2023-01-19T07:58:25.090Z,5.25
2023-01-19T08:03:26.563Z,3.28
2023-01-19T08:08:29.760Z,5.28
2023-01-19T08:13:31.222Z,6.15
2023-01-19T08:18:32.690Z,8.10
2023-01-19T08:23:34.144Z,12.88
2023-01-19T08:28:35.605Z,4.35
2023-01-19T08:33:37.103Z,4.38
2023-01-19T08:38:41.224Z,5.32
2023-01-19T08:43:42.911Z,8.30
2023-01-19T08:48:45.161Z,8.80
2023-01-19T08:53:46.661Z,4.43
2023-01-19T08:58:59.530Z,9.73
2023-01-19T09:04:09.443Z,6.85
2023-01-19T09:09:10.911Z,4.30
2023-01-19T09:14:12.374Z,3.92
2023-01-19T09:19:14.108Z,1.55
2023-01-19T09:24:15.577Z,3.25
2023-01-19T09:29:17.076Z,2.72
2023-01-19T09:34:18.611Z,5.90
2023-01-19T09:39:20.160Z,6.68
2023-01-19T09:44:32.755Z,6.45
2023-01-19T09:49:38.182Z,7.63
2023-01-19T09:54:47.425Z,4.40
2023-01-19T09:59:51.250Z,3.17
2023-01-19T10:05:05.509Z,11.07
2023-01-19T10:10:22.987Z,7.05
2023-01-19T10:15:27.377Z,3.08
2023-01-19T10:20:33.357Z,6.47
2023-01-19T10:25:35.122Z,6.50
2023-01-19T10:30:36.654Z,7.75
2023-01-19T10:35:38.156Z,11.57
2023-01-19T10:40:58.197Z,5.55
2023-01-19T10:45:59.725Z,8.27
2023-01-19T10:51:02.286Z,12.15
2023-01-19T10:56:34.347Z,4.40
2023-01-19T11:01:37.353Z,6.85
2023-01-19T11:06:39.083Z,8.13
2023-01-19T11:11:45.398Z,8.95
2023-01-19T11:16:48.570Z,11.70
2023-01-19T11:21:50.031Z,9.57
2023-01-19T11:26:57.474Z,9.32
2023-01-19T11:32:10.377Z,7.78
2023-01-19T11:37:20.735Z,6.90
2023-01-19T11:42:22.224Z,5.28
2023-01-19T11:47:27.201Z,5.93
2023-01-19T11:52:54.571Z,4.00
2023-01-19T11:57:56.019Z,5.90
2023-01-19T12:03:17.545Z,8.88
2023-01-19T12:08:22.398Z,4.57
2023-01-19T12:13:25.364Z,8.27
2023-01-19T12:18:33.274Z,7.13
2023-01-19T12:23:44.102Z,8.45
2023-01-19T12:28:47.473Z,9.68
2023-01-19T12:33:49.263Z,3.97
2023-01-19T12:39:01.331Z,6.75
2023-01-19T12:44:11.801Z,7.57
2023-01-19T12:49:22.703Z,8.52
2023-01-19T12:54:29.691Z,5.68
2023-01-19T12:59:31.153Z,2.70
2023-01-19T13:04:33.236Z,6.65
2023-01-19T13:09:36.862Z,2.83
2023-01-19T13:14:38.337Z,6.45
2023-01-19T13:19:51.374Z,2.90
2023-01-19T13:25:12.305Z,6.60
2023-01-19T13:30:17.625Z,4.65
2023-01-19T13:35:19.211Z,0.88
2023-01-19T13:40:23.159Z,8.90
2023-01-19T13:45:24.449Z,4.38
2023-01-19T13:50:30.283Z,4.70
2023-01-19T13:55:31.869Z,1.92
2023-01-19T14:00:33.401Z,3.53
2023-01-19T14:05:36.379Z,3.70
2023-01-19T14:10:42.325Z,3.75
2023-01-19T14:15:44.012Z,6.93
2023-01-19T14:21:06.850Z,5.30
2023-01-19T14:26:43.545Z,4.82
2023-01-19T14:32:00.313Z,5.03
2023-01-19T14:37:02.799Z,5.55
2023-01-19T14:42:04.930Z,2.08
2023-01-19T14:47:06.753Z,3.33
2023-01-19T14:52:29.759Z,2.65
2023-01-19T14:57:31.227Z,4.93
2023-01-19T15:02:32.723Z,1.65
2023-01-19T15:07:34.223Z,4.95
2023-01-19T15:12:35.682Z,5.40
2023-01-19T15:17:37.141Z,3.75
2023-01-19T15:22:38.598Z,4.03
2023-01-19T15:27:40.089Z,4.20
2023-01-19T15:32:43.767Z,5.40
2023-01-19T15:37:45.329Z,8.95
2023-01-19T15:42:46.803Z,4.43
2023-01-19T15:47:48.279Z,4.68
2023-01-19T15:52:49.751Z,7.82
2023-01-19T15:57:51.227Z,1.73
2023-01-19T16:02:52.848Z,4.57
2023-01-19T16:07:54.331Z,3.72
2023-01-19T16:12:55.803Z,5.25
2023-01-19T16:17:57.284Z,5.07
2023-01-19T16:23:13.885Z,2.95
2023-01-19T16:28:15.811Z,2.92
2023-01-19T16:33:17.364Z,8.27
2023-01-19T16:38:18.842Z,3.03
2023-01-19T16:43:20.353Z,3.13
2023-01-19T16:48:21.800Z,3.40
2023-01-19T16:53:23.260Z,5.68
2023-01-19T16:58:24.723Z,2.45
2023-01-19T17:03:27.054Z,1.48
2023-01-19T17:08:28.551Z,0.98
2023-01-19T17:13:30.537Z,0.90
2023-01-19T17:18:32.707Z,1.48
2023-01-19T17:23:34.661Z,3.20
2023-01-19T17:28:36.113Z,1.23
2023-01-19T17:33:37.573Z,0.47
2023-01-19T17:38:39.612Z,5.72
2023-01-19T17:43:41.111Z,4.97
2023-01-19T17:48:42.586Z,4.00
2023-01-19T17:53:44.059Z,1.27
2023-01-19T17:58:45.985Z,2.90
2023-01-19T18:03:47.541Z,1.70
2023-01-19T18:08:49.214Z,6.45
2023-01-19T18:13:50.765Z,5.65
2023-01-19T18:18:53.622Z,3.20
2023-01-19T18:24:04.726Z,3.88
2023-01-19T18:29:06.189Z,3.58
2023-01-19T18:34:07.680Z,5.53
2023-01-19T18:39:09.398Z,5.53
2023-01-19T18:44:11.243Z,1.70
2023-01-19T18:49:12.723Z,2.75
2023-01-19T18:54:14.176Z,5.47
2023-01-19T18:59:15.655Z,5.55
2023-01-19T19:04:17.128Z,7.22
2023-01-19T19:09:18.624Z,4.78
2023-01-19T19:14:20.145Z,2.65
2023-01-19T19:19:21.825Z,4.22
2023-01-19T19:24:23.418Z,7.40
2023-01-19T19:29:24.904Z,6.32
2023-01-19T19:34:26.372Z,2.30
2023-01-19T19:39:28.239Z,2.47
2023-01-19T19:44:29.736Z,3.65
2023-01-19T19:49:31.196Z,0.50
2023-01-19T19:54:32.673Z,3.00
2023-01-19T19:59:34.217Z,2.03
2023-01-19T20:04:35.758Z,4.80
2023-01-19T20:09:37.247Z,2.58
2023-01-19T20:14:38.747Z,1.05
2023-01-19T20:19:40.206Z,4.63
2023-01-19T20:24:41.692Z,10.27
2023-01-19T20:29:43.144Z,2.30
2023-01-19T20:34:44.641Z,2.28
2023-01-19T20:39:46.151Z,5.30
2023-01-19T20:44:47.636Z,2.50
2023-01-19T20:49:49.098Z,9.48
2023-01-19T20:54:52.089Z,7.63
2023-01-19T20:59:53.554Z,2.13
2023-01-19T21:04:55.035Z,6.30
2023-01-19T21:09:56.501Z,3.53
2023-01-19T21:14:58.061Z,3.75
2023-01-19T21:19:59.529Z,1.63
2023-01-19T21:25:00.984Z,4.97
2023-01-19T21:30:03.098Z,5.03
2023-01-19T21:35:05.161Z,2.80
2023-01-19T21:40:07.353Z,4.50
2023-01-19T21:45:09.047Z,4.15
2023-01-19T21:50:10.862Z,5.15
2023-01-19T21:55:12.618Z,7.57
2023-01-19T22:00:14.417Z,4.53
2023-01-19T22:05:15.908Z,7.82
2023-01-19T22:10:17.649Z,3.45
2023-01-19T22:15:19.134Z,6.72
2023-01-19T22:20:20.579Z,3.38
2023-01-19T22:25:27.441Z,9.10
2023-01-19T22:30:29.020Z,5.25
2023-01-19T22:35:30.497Z,4.47
2023-01-19T22:40:31.958Z,6.68
2023-01-19T22:45:33.424Z,3.30
2023-01-19T22:50:35.213Z,3.53
2023-01-19T22:55:36.690Z,4.90
2023-01-19T23:00:38.154Z,21.65
2023-01-19T23:05:39.665Z,4.95
2023-01-19T23:10:41.133Z,2.15
2023-01-19T23:15:42.645Z,1.83
2023-01-19T23:20:44.099Z,3.83
2023-01-19T23:25:45.565Z,5.65
2023-01-19T23:30:47.169Z,2.88
2023-01-19T23:35:48.690Z,4.40
2023-01-19T23:40:50.167Z,4.85
2023-01-19T23:45:51.678Z,5.82
2023-01-19T23:50:53.150Z,2.45
2023-01-19T23:55:54.624Z,1.77
